This is the latest recevied weather packets stored in our database for station/object IZ4MEH-10. If no packets are shown the sender has not sent any weather packets the latest 10 day(s).
| Time | Temp. | Humidity | Pressure | Rain* | Wind** | Luminosity | Snow |
|---|---|---|---|---|---|---|---|
| 1777839040 | 20° C | 45% | 1014.5 hPa | - | - | - | - |
| 1777837238 | 20.56° C | 43% | 1014.3 hPa | - | - | - | - |
| 1777835436 | 21.67° C | 39% | 1014 hPa | - | - | - | - |
| 1777833634 | 22.78° C | 37% | 1013.8 hPa | - | - | - | - |
| 1777831833 | 23.33° C | 41% | 1013.5 hPa | - | - | - | - |
| 1777830031 | 24.44° C | 33% | 1013.3 hPa | - | - | - | - |
| 1777828230 | 25° C | 32% | 1013.4 hPa | - | - | - | - |
| 1777826430 | 25.56° C | 32% | 1013.5 hPa | - | - | - | - |
| 1777824628 | 26.67° C | 31% | 1013.6 hPa | - | - | - | - |
| 1777822827 | 26.11° C | 31% | 1013.6 hPa | - | - | - | - |
| 1777821026 | 26.11° C | 31% | 1014 hPa | - | - | - | - |
| 1777819225 | 27.22° C | 30% | 1014.3 hPa | - | - | - | - |
| 1777817424 | 27.78° C | 30% | 1014.7 hPa | - | - | - | - |
| 1777815622 | 28.33° C | 28% | 1015 hPa | - | - | - | - |
| 1777813821 | 29.44° C | 26% | 1015.5 hPa | - | - | - | - |
| 1777812019 | 28.89° C | 27% | 1015.6 hPa | - | - | - | - |
| 1777810217 | 28.89° C | 27% | 1015.7 hPa | - | - | - | - |
| 1777808416 | 29.44° C | 27% | 1015.8 hPa | - | - | - | - |
| 1777806615 | 30.56° C | 23% | 1015.9 hPa | - | - | - | - |
| 1777804814 | 31.11° C | 24% | 1016.1 hPa | - | - | - | - |
| 1777803013 | 34.44° C | 22% | 1016.5 hPa | - | - | - | - |
| 1777801211 | 37.22° C | 19% | 1016.8 hPa | - | - | - | - |
| 1777799410 | 36.11° C | 20% | 1016.9 hPa | - | - | - | - |
| 1777797609 | 35.56° C | 20% | 1017.1 hPa | - | - | - | - |
| 1777795808 | 34.44° C | 21% | 1017.2 hPa | - | - | - | - |
* Rain since midnight (hover to see other rain measurements)
** Current wind speed in m/s (hover to see current wind gust speed)